createdAt,value
2023-05-12T00:00:09.027Z,12.30
2023-05-12T00:01:11.164Z,12.40
2023-05-12T00:02:06.182Z,12.40
2023-05-12T00:03:06.216Z,12.40
2023-05-12T00:04:03.922Z,12.30
2023-05-12T00:05:07.237Z,12.30
2023-05-12T00:06:06.248Z,12.30
2023-05-12T00:07:06.271Z,12.30
2023-05-12T00:08:03.778Z,12.30
2023-05-12T00:10:11.803Z,12.40
2023-05-12T00:12:06.489Z,12.30
2023-05-12T00:13:03.959Z,12.30
2023-05-12T00:14:03.516Z,12.30
2023-05-12T00:15:05.723Z,12.30
2023-05-12T00:16:03.225Z,12.30
2023-05-12T00:17:06.348Z,12.20
2023-05-12T00:18:03.901Z,12.40
2023-05-12T00:19:03.557Z,12.30
2023-05-12T00:20:05.920Z,12.20
2023-05-12T00:21:05.901Z,12.30
2023-05-12T00:22:03.402Z,12.30
2023-05-12T00:23:06.502Z,12.30
2023-05-12T00:24:04.007Z,12.30
2023-05-12T00:25:11.244Z,12.30
2023-05-12T00:26:03.768Z,12.30
2023-05-12T00:27:03.497Z,12.30
2023-05-12T00:29:03.764Z,12.30
2023-05-12T00:31:04.070Z,12.30
2023-05-12T00:32:03.953Z,12.30
2023-05-12T00:33:06.474Z,12.30
2023-05-12T00:34:03.952Z,12.30
2023-05-12T00:35:03.596Z,12.30
2023-05-12T00:36:03.243Z,12.30
2023-05-12T00:37:03.874Z,12.30
2023-05-12T00:38:06.124Z,12.30
2023-05-12T00:39:06.130Z,12.30
2023-05-12T00:40:03.630Z,12.30
2023-05-12T00:41:05.850Z,12.30
2023-05-12T00:42:05.900Z,12.30
2023-05-12T00:43:08.402Z,12.30
2023-05-12T00:44:03.935Z,12.30
2023-05-12T00:45:03.522Z,12.30
2023-05-12T00:46:03.157Z,12.30
2023-05-12T00:47:03.822Z,12.20
2023-05-12T00:48:05.955Z,12.30
2023-05-12T00:49:05.958Z,12.20
2023-05-12T00:50:06.057Z,12.30
2023-05-12T00:51:03.617Z,12.20
2023-05-12T00:52:03.233Z,12.20
2023-05-12T00:53:03.238Z,12.20
2023-05-12T00:54:06.446Z,12.20
2023-05-12T00:55:03.980Z,12.20
2023-05-12T00:56:06.143Z,12.20
2023-05-12T00:57:06.213Z,12.20
2023-05-12T00:58:03.173Z,12.20
2023-05-12T00:59:03.813Z,12.30
2023-05-12T01:00:03.411Z,12.20
2023-05-12T01:01:04.034Z,12.20
2023-05-12T01:03:03.484Z,12.20
2023-05-12T01:04:03.171Z,12.20
2023-05-12T01:05:03.850Z,12.20
2023-05-12T01:06:03.416Z,12.20
2023-05-12T01:07:09.147Z,12.20
2023-05-12T01:08:06.175Z,12.10
2023-05-12T01:09:03.586Z,12.10
2023-05-12T01:10:03.264Z,12.20
2023-05-12T01:11:06.585Z,12.10
2023-05-12T01:12:04.082Z,12.10
2023-05-12T01:13:03.708Z,12.10
2023-05-12T01:14:08.386Z,12.10
2023-05-12T01:15:03.823Z,12.10
2023-05-12T01:16:03.492Z,12.10
2023-05-12T01:17:06.709Z,12.10
2023-05-12T01:18:05.957Z,12.10
2023-05-12T01:19:06.170Z,12.10
2023-05-12T01:20:06.332Z,12.10
2023-05-12T01:21:03.751Z,12.00
2023-05-12T01:22:03.402Z,12.10
2023-05-12T01:23:09.164Z,12.00
2023-05-12T01:24:06.203Z,12.00
2023-05-12T01:25:06.167Z,12.00
2023-05-12T01:26:03.618Z,12.00
2023-05-12T01:27:05.896Z,12.00
2023-05-12T01:28:03.321Z,12.00
2023-05-12T01:29:03.958Z,12.00
2023-05-12T01:30:03.609Z,11.90
2023-05-12T01:31:05.899Z,11.90
2023-05-12T01:32:03.628Z,11.90
2023-05-12T01:33:05.763Z,11.90
2023-05-12T01:34:03.399Z,11.90
2023-05-12T01:35:05.879Z,11.90
2023-05-12T01:36:08.394Z,11.90
2023-05-12T01:37:03.833Z,11.90
2023-05-12T01:38:03.421Z,11.80
2023-05-12T01:39:04.004Z,11.80
2023-05-12T01:40:03.578Z,11.80
2023-05-12T01:41:03.166Z,11.80
2023-05-12T01:42:03.716Z,11.70
2023-05-12T01:43:03.267Z,11.70
2023-05-12T01:44:06.462Z,11.70
2023-05-12T01:45:06.490Z,11.70
2023-05-12T01:46:06.499Z,11.70
2023-05-12T01:47:03.996Z,11.60
2023-05-12T01:48:03.599Z,11.60
2023-05-12T01:49:03.242Z,11.60
2023-05-12T01:50:03.801Z,11.60
2023-05-12T01:51:03.359Z,11.50
2023-05-12T01:52:03.942Z,11.50
2023-05-12T01:53:06.187Z,11.50
2023-05-12T01:54:03.685Z,11.50
2023-05-12T01:55:03.283Z,11.50
2023-05-12T01:56:06.445Z,11.50
2023-05-12T01:57:04.053Z,11.50
2023-05-12T01:58:03.570Z,11.50
2023-05-12T01:59:03.210Z,11.40
2023-05-12T02:00:03.831Z,11.40
2023-05-12T02:02:06.641Z,11.40
2023-05-12T02:03:03.482Z,11.40
2023-05-12T02:04:03.265Z,11.40
2023-05-12T02:05:08.356Z,11.30
2023-05-12T02:06:03.766Z,11.30
2023-05-12T02:07:03.297Z,11.30
2023-05-12T02:08:03.821Z,11.30
2023-05-12T02:09:05.953Z,11.30
2023-05-12T02:10:03.479Z,11.20
2023-05-12T02:11:03.245Z,11.30
2023-05-12T02:12:06.433Z,11.20
2023-05-12T02:13:03.896Z,11.20
2023-05-12T02:14:06.366Z,11.20
2023-05-12T02:15:06.418Z,11.20
2023-05-12T02:16:06.428Z,11.20
2023-05-12T02:17:09.095Z,11.20
2023-05-12T02:19:03.260Z,11.20
2023-05-12T02:20:03.982Z,11.10
2023-05-12T02:21:06.116Z,11.10
2023-05-12T02:22:11.162Z,11.10
2023-05-12T02:23:06.112Z,11.10
2023-05-12T02:24:06.092Z,11.10
2023-05-12T02:25:06.136Z,11.10
2023-05-12T02:26:03.701Z,11.10
2023-05-12T02:27:05.854Z,11.00
2023-05-12T02:28:05.830Z,11.00
2023-05-12T02:29:03.380Z,11.00
2023-05-12T02:30:04.039Z,11.00
2023-05-12T02:32:03.855Z,11.00
2023-05-12T02:34:04.441Z,11.00
2023-05-12T02:35:08.214Z,10.90
2023-05-12T02:36:06.211Z,10.90
2023-05-12T02:37:03.644Z,10.90
2023-05-12T02:38:05.748Z,10.90
2023-05-12T02:39:03.307Z,10.90
2023-05-12T02:40:04.022Z,10.90
2023-05-12T02:41:06.258Z,10.90
2023-05-12T02:42:08.802Z,10.90
2023-05-12T02:43:08.288Z,10.80
2023-05-12T02:44:03.810Z,10.80
2023-05-12T02:45:03.515Z,10.80
2023-05-12T02:46:04.124Z,10.80
2023-05-12T02:47:06.435Z,10.80
2023-05-12T02:48:03.937Z,10.80
2023-05-12T02:49:06.085Z,10.80
2023-05-12T02:50:03.507Z,10.80
2023-05-12T02:51:04.111Z,10.80
2023-05-12T02:52:06.431Z,10.80
2023-05-12T02:53:06.501Z,10.80
2023-05-12T02:54:04.044Z,10.80
2023-05-12T02:55:03.691Z,10.70
2023-05-12T02:56:03.496Z,10.80
2023-05-12T02:57:04.033Z,10.70
2023-05-12T02:58:03.614Z,10.70
2023-05-12T02:59:03.179Z,10.70
2023-05-12T03:00:03.774Z,10.70
2023-05-12T03:01:10.507Z,10.70
2023-05-12T03:02:05.813Z,10.70
2023-05-12T03:03:03.367Z,10.70
2023-05-12T03:04:03.328Z,10.70
2023-05-12T03:05:04.035Z,10.70
2023-05-12T03:06:03.674Z,10.70
2023-05-12T03:07:03.314Z,10.70
2023-05-12T03:08:03.845Z,10.70
2023-05-12T03:09:03.423Z,10.70
2023-05-12T03:10:06.554Z,10.70
2023-05-12T03:11:06.534Z,10.70
2023-05-12T03:12:04.065Z,10.70
2023-05-12T03:14:05.791Z,10.70
2023-05-12T03:15:05.829Z,10.70
2023-05-12T03:16:03.218Z,10.70
2023-05-12T03:17:03.906Z,10.70
2023-05-12T03:18:06.267Z,10.70
2023-05-12T03:19:06.511Z,10.70
2023-05-12T03:21:04.021Z,10.70
2023-05-12T03:22:03.584Z,10.70
2023-05-12T03:23:05.711Z,10.70
2023-05-12T03:24:05.676Z,10.80
2023-05-12T03:26:06.189Z,10.70
2023-05-12T03:27:03.751Z,10.70
2023-05-12T03:28:03.409Z,10.70
2023-05-12T03:29:04.041Z,10.70
2023-05-12T03:30:06.218Z,10.70
2023-05-12T03:31:03.802Z,10.70
2023-05-12T03:32:03.517Z,10.70
2023-05-12T03:33:04.150Z,10.70
2023-05-12T03:34:03.993Z,10.70
2023-05-12T03:35:06.235Z,10.70
2023-05-12T03:37:03.317Z,10.70
2023-05-12T03:39:05.945Z,10.70
2023-05-12T03:41:05.746Z,10.70
2023-05-12T03:42:08.400Z,10.70
2023-05-12T03:43:06.418Z,10.70
2023-05-12T03:44:03.644Z,11.20
2023-05-12T03:45:03.252Z,10.70
2023-05-12T03:46:08.993Z,10.70
2023-05-12T03:48:03.259Z,10.60
2023-05-12T03:49:06.594Z,10.60
2023-05-12T03:50:04.077Z,10.60
2023-05-12T03:51:03.412Z,10.60
2023-05-12T03:52:04.060Z,10.60
2023-05-12T03:53:13.913Z,10.60
2023-05-12T03:54:06.064Z,10.70
2023-05-12T03:55:03.514Z,10.60
2023-05-12T03:56:03.215Z,10.60
2023-05-12T03:58:09.501Z,10.60
2023-05-12T03:59:11.427Z,10.60
2023-05-12T04:00:03.881Z,10.60
2023-05-12T04:01:03.806Z,10.70
2023-05-12T04:02:06.020Z,10.70
2023-05-12T04:03:03.680Z,10.70
2023-05-12T04:04:03.378Z,10.70
2023-05-12T04:05:09.205Z,10.70
2023-05-12T04:06:03.760Z,10.70
2023-05-12T04:07:03.426Z,10.70
2023-05-12T04:08:09.052Z,10.80
2023-05-12T04:09:03.599Z,10.80
2023-05-12T04:10:05.829Z,10.80
2023-05-12T04:11:05.883Z,10.90
2023-05-12T04:12:03.356Z,10.80
2023-05-12T04:13:03.914Z,10.80
2023-05-12T04:14:03.606Z,10.90
2023-05-12T04:15:05.992Z,10.90
2023-05-12T04:16:03.493Z,10.80
2023-05-12T04:17:04.127Z,10.90
2023-05-12T04:18:08.580Z,10.90
2023-05-12T04:19:04.149Z,10.90
2023-05-12T04:20:03.971Z,10.90
2023-05-12T04:21:11.252Z,11.00
2023-05-12T04:22:06.367Z,11.00
2023-05-12T04:23:03.870Z,11.00
2023-05-12T04:25:11.596Z,10.90
2023-05-12T04:27:09.049Z,11.00
2023-05-12T04:30:03.367Z,11.00
2023-05-12T04:31:11.825Z,11.00
2023-05-12T04:33:03.314Z,11.00
2023-05-12T04:34:04.090Z,11.00
2023-05-12T04:35:03.690Z,11.00
2023-05-12T04:36:03.436Z,11.00
2023-05-12T04:37:04.099Z,11.00
2023-05-12T04:38:03.789Z,11.10
2023-05-12T04:39:03.451Z,11.10
2023-05-12T04:40:06.777Z,11.10
2023-05-12T04:42:06.378Z,11.10
2023-05-12T04:43:06.419Z,11.10
2023-05-12T04:44:04.121Z,11.10
2023-05-12T04:45:03.817Z,11.20
2023-05-12T04:46:03.659Z,11.20
2023-05-12T04:47:03.338Z,11.20
2023-05-12T04:48:06.558Z,11.20
2023-05-12T04:49:06.598Z,11.20
2023-05-12T04:50:06.594Z,11.20
2023-05-12T04:51:04.161Z,11.20
2023-05-12T04:52:03.632Z,11.20
2023-05-12T04:53:05.870Z,11.20
2023-05-12T04:54:03.332Z,11.20
2023-05-12T04:55:06.675Z,11.30
2023-05-12T04:56:05.700Z,11.30
2023-05-12T04:57:05.710Z,11.30
2023-05-12T04:58:03.235Z,11.30
2023-05-12T04:59:03.862Z,11.30
2023-05-12T05:00:06.059Z,11.30
2023-05-12T05:01:03.587Z,11.30
2023-05-12T05:02:03.320Z,11.40
2023-05-12T05:03:04.021Z,11.40
2023-05-12T05:04:03.858Z,11.40
2023-05-12T05:05:03.462Z,11.40
2023-05-12T05:06:04.121Z,11.40
2023-05-12T05:08:03.479Z,11.50
2023-05-12T05:09:04.122Z,11.50
2023-05-12T05:10:06.388Z,11.50
2023-05-12T05:11:03.938Z,11.50
2023-05-12T05:12:03.585Z,11.50
2023-05-12T05:13:03.193Z,11.60
2023-05-12T05:14:06.366Z,11.60
2023-05-12T05:15:03.910Z,11.60
2023-05-12T05:16:03.623Z,11.60
2023-05-12T05:17:05.869Z,11.70
2023-05-12T05:18:10.972Z,11.60
2023-05-12T05:19:06.315Z,11.60
2023-05-12T05:20:09.228Z,11.70
2023-05-12T05:21:08.851Z,11.70
2023-05-12T05:22:03.410Z,11.70
2023-05-12T05:23:04.071Z,11.70
2023-05-12T05:25:03.405Z,11.80
2023-05-12T05:26:04.041Z,11.80
2023-05-12T05:27:03.947Z,11.80
2023-05-12T05:28:03.624Z,11.80
2023-05-12T05:29:05.797Z,11.80
2023-05-12T05:30:03.229Z,11.80
2023-05-12T05:31:03.822Z,11.80
2023-05-12T05:32:03.551Z,11.90
2023-05-12T05:33:05.815Z,11.90
2023-05-12T05:34:05.999Z,11.90
2023-05-12T05:35:07.621Z,11.90
2023-05-12T05:36:04.059Z,11.90
2023-05-12T05:37:06.256Z,11.90
2023-05-12T05:38:06.325Z,12.00
2023-05-12T05:39:03.932Z,11.90
2023-05-12T05:40:03.491Z,12.00
2023-05-12T05:41:06.629Z,12.00
2023-05-12T05:42:04.162Z,12.00
2023-05-12T05:43:03.836Z,12.00
2023-05-12T05:44:03.548Z,12.00
2023-05-12T05:45:05.807Z,12.10
2023-05-12T05:46:05.786Z,12.00
2023-05-12T05:48:06.654Z,12.10
2023-05-12T05:50:06.211Z,12.10
2023-05-12T05:51:03.713Z,12.10
2023-05-12T05:52:03.303Z,12.10
2023-05-12T05:53:06.603Z,12.10
2023-05-12T05:54:04.104Z,12.10
2023-05-12T05:55:03.658Z,12.10
2023-05-12T05:56:05.776Z,12.20
2023-05-12T05:57:03.327Z,12.10
2023-05-12T05:58:06.524Z,12.20
2023-05-12T05:59:04.022Z,12.20
2023-05-12T06:00:06.332Z,12.30
2023-05-12T06:01:03.925Z,12.30
2023-05-12T06:02:06.050Z,12.30
2023-05-12T06:03:03.838Z,12.30
2023-05-12T06:04:03.709Z,12.30
2023-05-12T06:05:06.135Z,12.40
2023-05-12T06:06:03.621Z,12.40
2023-05-12T06:07:03.280Z,12.40
2023-05-12T06:08:03.816Z,12.50
2023-05-12T06:09:06.066Z,12.50
2023-05-12T06:10:03.567Z,12.50
2023-05-12T06:12:04.101Z,12.60
2023-05-12T06:13:03.668Z,12.60
2023-05-12T06:14:05.813Z,12.70
2023-05-12T06:15:06.070Z,12.70
2023-05-12T06:16:06.109Z,12.70
2023-05-12T06:17:06.384Z,12.70
2023-05-12T06:18:04.042Z,12.80
2023-05-12T06:19:06.244Z,12.80
2023-05-12T06:20:03.884Z,12.80
2023-05-12T06:21:03.493Z,12.80
2023-05-12T06:22:03.165Z,12.90
2023-05-12T06:23:06.448Z,13.00
2023-05-12T06:24:06.509Z,13.00
2023-05-12T06:25:04.138Z,12.90
2023-05-12T06:26:03.856Z,13.00
2023-05-12T06:27:05.897Z,13.10
2023-05-12T06:28:03.616Z,13.10
2023-05-12T06:29:03.322Z,13.20
2023-05-12T06:30:06.596Z,13.20
2023-05-12T06:31:04.126Z,13.20
2023-05-12T06:32:03.743Z,13.30
2023-05-12T06:33:03.362Z,13.30
2023-05-12T06:34:04.164Z,13.40
2023-05-12T06:36:03.514Z,13.40
2023-05-12T06:37:04.204Z,13.50
2023-05-12T06:38:06.439Z,13.40
2023-05-12T06:39:06.465Z,13.60
2023-05-12T06:40:06.467Z,13.60
2023-05-12T06:41:03.934Z,13.60
2023-05-12T06:42:06.118Z,13.70
2023-05-12T06:43:03.721Z,13.70
2023-05-12T06:44:03.390Z,13.70
2023-05-12T06:45:05.753Z,13.80
2023-05-12T06:46:03.313Z,13.80
2023-05-12T06:47:08.963Z,13.90
2023-05-12T06:49:04.192Z,14.00
2023-05-12T06:50:03.994Z,14.00
2023-05-12T06:51:09.079Z,14.10
2023-05-12T06:52:03.624Z,14.10
2023-05-12T06:53:03.357Z,14.10
2023-05-12T06:54:06.378Z,14.20
2023-05-12T06:55:03.921Z,14.20
2023-05-12T06:56:08.577Z,14.20
2023-05-12T06:57:04.092Z,14.20
2023-05-12T06:58:06.282Z,14.30
2023-05-12T06:59:03.754Z,14.30
2023-05-12T07:00:05.942Z,14.40
2023-05-12T07:01:03.519Z,14.40
2023-05-12T07:02:05.701Z,14.40
2023-05-12T07:03:04.145Z,14.40
2023-05-12T07:04:04.178Z,14.50
2023-05-12T07:06:06.102Z,14.60
2023-05-12T07:07:06.300Z,14.60
2023-05-12T07:08:03.803Z,14.60
2023-05-12T07:09:06.076Z,14.70
2023-05-12T07:10:03.610Z,14.70
2023-05-12T07:11:05.737Z,14.70
2023-05-12T07:12:03.317Z,14.70
2023-05-12T07:13:04.033Z,14.70
2023-05-12T07:14:03.642Z,14.70
2023-05-12T07:15:05.857Z,14.70
2023-05-12T07:16:08.512Z,14.70
2023-05-12T07:17:04.140Z,14.80
2023-05-12T07:18:03.810Z,14.80
2023-05-12T07:19:06.152Z,14.80
2023-05-12T07:20:03.823Z,14.80
2023-05-12T07:21:05.961Z,14.90
2023-05-12T07:22:06.117Z,14.90
2023-05-12T07:23:13.810Z,14.90
2023-05-12T07:24:05.895Z,14.90
2023-05-12T07:25:05.915Z,15.00
2023-05-12T07:26:06.171Z,14.90
2023-05-12T07:27:06.222Z,15.00
2023-05-12T07:28:03.726Z,15.00
2023-05-12T07:29:03.446Z,15.00
2023-05-12T07:30:10.909Z,14.90
2023-05-12T07:31:03.427Z,14.90
2023-05-12T07:32:03.195Z,15.00
2023-05-12T07:33:03.861Z,15.00
2023-05-12T07:34:06.150Z,15.10
2023-05-12T07:35:03.726Z,15.10
2023-05-12T07:36:03.504Z,15.10
2023-05-12T07:37:06.814Z,15.20
2023-05-12T07:38:06.071Z,15.20
2023-05-12T07:39:06.104Z,15.30
2023-05-12T07:40:06.128Z,15.30
2023-05-12T07:41:06.172Z,15.30
2023-05-12T07:42:06.343Z,15.30
2023-05-12T07:43:06.302Z,15.30
2023-05-12T07:44:03.785Z,15.30
2023-05-12T07:45:03.411Z,15.40
2023-05-12T07:46:09.146Z,15.40
2023-05-12T07:47:06.128Z,15.50
2023-05-12T07:48:06.243Z,15.50
2023-05-12T07:49:08.907Z,15.50
2023-05-12T07:50:05.981Z,15.60
2023-05-12T07:51:05.982Z,15.70
2023-05-12T07:52:03.459Z,15.60
2023-05-12T07:53:04.099Z,15.70
2023-05-12T07:54:03.834Z,15.70
2023-05-12T07:55:03.445Z,15.70
2023-05-12T07:56:06.610Z,15.80
2023-05-12T07:57:04.077Z,15.80
2023-05-12T07:58:06.232Z,15.80
2023-05-12T07:59:03.642Z,15.80
2023-05-12T08:01:05.678Z,15.90
2023-05-12T08:02:06.007Z,15.90
2023-05-12T08:03:03.639Z,15.90
2023-05-12T08:04:03.442Z,15.90
2023-05-12T08:06:03.959Z,16.00
2023-05-12T08:07:03.677Z,16.10
2023-05-12T08:08:03.376Z,16.10
2023-05-12T08:09:03.984Z,16.10
2023-05-12T08:10:03.641Z,16.10
2023-05-12T08:11:03.254Z,16.20
2023-05-12T08:12:04.108Z,16.20
2023-05-12T08:13:06.209Z,16.30
2023-05-12T08:14:06.153Z,16.30
2023-05-12T08:15:06.163Z,16.40
2023-05-12T08:16:06.208Z,16.40
2023-05-12T08:17:08.734Z,16.50
2023-05-12T08:18:03.417Z,16.50
2023-05-12T08:19:04.091Z,16.50
2023-05-12T08:21:03.635Z,16.60
2023-05-12T08:22:03.284Z,16.70
2023-05-12T08:23:03.993Z,16.70
2023-05-12T08:24:04.752Z,16.80
2023-05-12T08:26:06.491Z,16.90
2023-05-12T08:27:03.928Z,16.90
2023-05-12T08:28:04.013Z,16.90
2023-05-12T08:29:03.657Z,17.00
2023-05-12T08:30:03.308Z,17.00
2023-05-12T08:31:04.911Z,17.00
2023-05-12T08:32:06.491Z,17.20
2023-05-12T08:33:06.602Z,17.20
2023-05-12T08:35:03.517Z,17.20
2023-05-12T08:36:05.699Z,17.30
2023-05-12T08:37:03.280Z,17.30
2023-05-12T08:38:03.831Z,17.30
2023-05-12T08:39:05.973Z,17.40
2023-05-12T08:40:03.426Z,17.00
2023-05-12T08:41:04.116Z,17.40
2023-05-12T08:42:06.398Z,17.50
2023-05-12T08:43:06.452Z,17.50
2023-05-12T08:44:04.045Z,17.50
2023-05-12T08:45:03.619Z,17.50
2023-05-12T08:46:03.192Z,17.50
2023-05-12T08:47:03.804Z,17.50
2023-05-12T08:49:03.991Z,17.60
2023-05-12T08:50:06.194Z,17.60
2023-05-12T08:51:06.131Z,17.70
2023-05-12T08:52:06.191Z,17.70
2023-05-12T08:55:03.695Z,17.70
2023-05-12T08:57:09.790Z,17.80
2023-05-12T08:59:03.935Z,17.70
2023-05-12T09:00:03.638Z,17.80
2023-05-12T09:01:03.393Z,17.80
2023-05-12T09:02:04.033Z,17.80
2023-05-12T09:03:03.902Z,17.70
2023-05-12T09:04:06.263Z,17.80
2023-05-12T09:05:03.832Z,17.80
2023-05-12T09:06:03.440Z,17.80
2023-05-12T09:07:04.173Z,17.80
2023-05-12T09:08:06.414Z,17.80
2023-05-12T09:09:03.863Z,17.70
2023-05-12T09:10:03.535Z,17.80
2023-05-12T09:11:05.855Z,17.80
2023-05-12T09:12:03.358Z,17.90
2023-05-12T09:13:04.065Z,17.90
2023-05-12T09:15:03.388Z,17.90
2023-05-12T09:16:06.606Z,17.90
2023-05-12T09:17:05.814Z,18.00
2023-05-12T09:18:03.538Z,18.00
2023-05-12T09:19:05.400Z,18.00
2023-05-12T09:20:13.174Z,18.20
2023-05-12T09:22:06.591Z,18.30
2023-05-12T09:23:04.081Z,18.30
2023-05-12T09:24:03.750Z,18.30
2023-05-12T09:26:04.122Z,18.40
2023-05-12T09:27:06.217Z,18.40
2023-05-12T09:28:03.688Z,18.40
2023-05-12T09:29:03.243Z,18.40
2023-05-12T09:30:03.892Z,18.50
2023-05-12T09:31:06.208Z,18.50
2023-05-12T09:32:04.061Z,18.40
2023-05-12T09:33:03.847Z,18.40
2023-05-12T09:34:06.143Z,18.50
2023-05-12T09:35:03.696Z,18.50
2023-05-12T09:36:03.404Z,18.60
2023-05-12T09:37:06.719Z,18.80
2023-05-12T09:38:06.110Z,18.90
2023-05-12T09:39:03.940Z,18.90
2023-05-12T09:40:03.556Z,19.00
2023-05-12T09:41:03.254Z,19.10
2023-05-12T09:42:03.915Z,19.20
2023-05-12T09:43:06.042Z,19.40
2023-05-12T09:44:06.039Z,19.50
2023-05-12T09:45:06.065Z,19.50
2023-05-12T09:46:03.657Z,19.50
2023-05-12T09:47:03.304Z,19.60
2023-05-12T09:48:03.985Z,19.70
2023-05-12T09:49:03.764Z,19.60
2023-05-12T09:50:05.858Z,19.60
2023-05-12T09:51:08.424Z,19.50
2023-05-12T09:52:09.073Z,19.50
2023-05-12T09:53:06.040Z,19.40
2023-05-12T09:54:04.610Z,19.40
2023-05-12T09:55:16.591Z,19.40
2023-05-12T09:56:06.653Z,19.40
2023-05-12T09:57:04.141Z,19.40
2023-05-12T09:59:03.233Z,19.40
2023-05-12T10:00:04.871Z,19.30
2023-05-12T10:03:03.706Z,19.20
2023-05-12T10:04:06.008Z,19.20
2023-05-12T10:05:03.524Z,19.10
2023-05-12T10:06:04.615Z,19.10
2023-05-12T10:07:11.555Z,19.00
2023-05-12T10:08:04.127Z,19.00
2023-05-12T10:09:03.663Z,19.00
2023-05-12T10:10:03.433Z,18.90
2023-05-12T10:11:06.549Z,18.90
2023-05-12T10:12:04.205Z,18.90
2023-05-12T10:13:03.793Z,18.90
2023-05-12T10:14:03.832Z,18.90
2023-05-12T10:15:05.975Z,18.80
2023-05-12T10:16:06.104Z,18.80
2023-05-12T10:17:03.682Z,18.90
2023-05-12T10:18:03.389Z,18.80
2023-05-12T10:19:04.068Z,18.80
2023-05-12T10:20:04.038Z,18.90
2023-05-12T10:22:08.371Z,19.00
2023-05-12T10:23:03.877Z,19.00
2023-05-12T10:24:03.374Z,19.00
2023-05-12T10:25:09.016Z,19.10
2023-05-12T10:26:03.592Z,19.10
2023-05-12T10:27:03.205Z,19.10
2023-05-12T10:28:06.338Z,19.10
2023-05-12T10:29:06.289Z,19.10
2023-05-12T10:30:03.697Z,19.10
2023-05-12T10:31:08.362Z,19.10
2023-05-12T10:32:03.982Z,19.10
2023-05-12T10:33:03.640Z,19.10
2023-05-12T10:34:05.983Z,19.20
2023-05-12T10:35:03.480Z,19.20
2023-05-12T10:36:03.229Z,19.20
2023-05-12T10:37:03.776Z,19.20
2023-05-12T10:38:03.408Z,19.20
2023-05-12T10:39:04.022Z,19.20
2023-05-12T10:40:06.134Z,19.10
2023-05-12T10:41:06.178Z,19.20
2023-05-12T10:42:03.707Z,19.10
2023-05-12T10:43:03.428Z,19.10
2023-05-12T10:44:04.027Z,19.20
2023-05-12T10:46:03.508Z,19.00
2023-05-12T10:47:03.997Z,19.00
2023-05-12T10:48:08.754Z,19.00
2023-05-12T10:50:03.998Z,19.00
2023-05-12T10:51:03.647Z,19.00
2023-05-12T10:52:03.305Z,18.90
2023-05-12T10:53:03.959Z,19.00
2023-05-12T10:54:06.151Z,19.00
2023-05-12T10:55:03.698Z,19.00
2023-05-12T10:56:03.542Z,19.00
2023-05-12T10:57:03.964Z,19.00
2023-05-12T10:58:04.578Z,19.00
2023-05-12T10:59:04.009Z,18.90
2023-05-12T11:00:06.722Z,18.90
2023-05-12T11:01:04.314Z,19.00
2023-05-12T11:02:05.292Z,18.90
2023-05-12T11:03:09.772Z,18.90
2023-05-12T11:04:04.196Z,18.90
2023-05-12T11:05:04.271Z,19.00
2023-05-12T11:07:03.670Z,18.90
2023-05-12T11:08:04.515Z,18.90
2023-05-12T11:09:04.900Z,18.90
2023-05-12T11:10:10.009Z,19.00
2023-05-12T11:12:04.791Z,18.90
2023-05-12T11:13:03.914Z,18.90
2023-05-12T11:14:03.492Z,18.90
2023-05-12T11:15:06.865Z,19.00
2023-05-12T11:16:06.249Z,19.10
2023-05-12T11:17:04.074Z,19.10
2023-05-12T11:18:03.682Z,19.10
2023-05-12T11:19:13.768Z,19.20
2023-05-12T11:20:05.983Z,19.20
2023-05-12T11:22:03.330Z,19.20
2023-05-12T11:23:03.978Z,19.30
2023-05-12T11:24:06.075Z,19.30
2023-05-12T11:25:06.182Z,19.30
2023-05-12T11:27:03.437Z,19.30
2023-05-12T11:30:03.588Z,19.20
2023-05-12T11:32:03.654Z,19.10
2023-05-12T11:33:03.754Z,19.10
2023-05-12T11:34:11.742Z,19.00
2023-05-12T11:35:06.552Z,18.90
2023-05-12T11:36:04.135Z,18.90
2023-05-12T11:37:06.266Z,18.90
2023-05-12T11:38:03.782Z,18.80
2023-05-12T11:39:05.946Z,18.90
2023-05-12T11:40:03.446Z,18.90
2023-05-12T11:41:04.059Z,18.80
2023-05-12T11:42:11.940Z,18.80
2023-05-12T11:43:03.904Z,18.90
2023-05-12T11:44:05.855Z,18.70
2023-05-12T11:45:05.925Z,18.70
2023-05-12T11:46:03.440Z,18.80
2023-05-12T11:47:06.602Z,18.60
2023-05-12T11:48:04.075Z,18.80
2023-05-12T11:49:03.689Z,18.70
2023-05-12T11:50:03.321Z,18.80
2023-05-12T11:51:03.842Z,18.70
2023-05-12T11:52:03.482Z,18.70
2023-05-12T11:53:06.644Z,18.70
2023-05-12T11:54:04.079Z,18.70
2023-05-12T11:55:03.650Z,18.70
2023-05-12T11:56:05.926Z,18.70
2023-05-12T11:57:03.385Z,18.80
2023-05-12T11:58:09.122Z,18.80
2023-05-12T11:59:03.624Z,18.80
2023-05-12T12:00:03.260Z,18.70
2023-05-12T12:01:03.913Z,18.80
2023-05-12T12:02:03.531Z,18.80
2023-05-12T12:03:03.325Z,18.80
2023-05-12T12:04:04.084Z,18.80
2023-05-12T12:05:04.535Z,18.90
2023-05-12T12:08:03.676Z,18.90
2023-05-12T12:10:04.044Z,19.00
2023-05-12T12:11:08.711Z,19.00
2023-05-12T12:12:03.492Z,19.00
2023-05-12T12:13:04.119Z,19.00
2023-05-12T12:14:08.656Z,19.10
2023-05-12T12:15:04.126Z,19.10
2023-05-12T12:17:03.784Z,19.20
2023-05-12T12:18:06.018Z,19.10
2023-05-12T12:19:03.824Z,19.30
2023-05-12T12:20:06.099Z,19.30
2023-05-12T12:21:03.588Z,19.40
2023-05-12T12:22:03.418Z,19.30
2023-05-12T12:23:06.695Z,19.30
2023-05-12T12:24:06.695Z,19.40
2023-05-12T12:26:03.770Z,19.40
2023-05-12T12:27:03.462Z,19.40
2023-05-12T12:28:09.174Z,19.50
2023-05-12T12:29:06.171Z,19.40
2023-05-12T12:30:03.644Z,19.30
2023-05-12T12:31:03.290Z,19.40
2023-05-12T12:32:03.997Z,19.30
2023-05-12T12:34:03.454Z,19.30
2023-05-12T12:35:04.014Z,19.20
2023-05-12T12:36:03.639Z,19.20
2023-05-12T12:37:03.163Z,19.40
2023-05-12T12:38:03.814Z,19.40
2023-05-12T12:39:03.396Z,19.40
2023-05-12T12:40:04.009Z,19.40
2023-05-12T12:42:03.293Z,19.60
2023-05-12T12:43:03.863Z,19.70
2023-05-12T12:44:03.576Z,19.70
2023-05-12T12:45:04.120Z,19.90
2023-05-12T12:46:06.219Z,19.90
2023-05-12T12:47:03.813Z,19.80
2023-05-12T12:48:03.707Z,19.70
2023-05-12T12:49:05.966Z,19.70
2023-05-12T12:50:08.643Z,19.60
2023-05-12T12:51:04.173Z,19.60
2023-05-12T12:52:03.718Z,19.50
2023-05-12T12:53:03.422Z,19.70
2023-05-12T12:54:06.500Z,19.50
2023-05-12T12:55:08.984Z,19.60
2023-05-12T12:56:03.667Z,19.60
2023-05-12T12:57:03.240Z,19.50
2023-05-12T12:58:06.379Z,19.40
2023-05-12T12:59:03.872Z,19.50
2023-05-12T13:00:06.009Z,19.40
2023-05-12T13:01:03.567Z,19.50
2023-05-12T13:02:05.890Z,19.50
2023-05-12T13:03:05.948Z,19.50
2023-05-12T13:04:03.373Z,19.40
2023-05-12T13:05:06.417Z,19.50
2023-05-12T13:07:06.438Z,19.50
2023-05-12T13:08:03.926Z,19.60
2023-05-12T13:09:03.527Z,19.50
2023-05-12T13:11:06.475Z,19.80
2023-05-12T13:12:06.662Z,19.70
2023-05-12T13:13:09.231Z,19.90
2023-05-12T13:14:08.730Z,19.80
2023-05-12T13:15:06.728Z,20.00
2023-05-12T13:17:03.861Z,20.00
2023-05-12T13:19:06.697Z,20.00
2023-05-12T13:21:06.517Z,20.10
2023-05-12T13:22:03.903Z,20.10
2023-05-12T13:23:03.507Z,20.10
2023-05-12T13:24:04.018Z,20.00
2023-05-12T13:25:04.876Z,20.10
2023-05-12T13:26:03.968Z,20.10
2023-05-12T13:27:06.076Z,20.10
2023-05-12T13:31:06.113Z,20.00
2023-05-12T13:32:03.819Z,19.90
2023-05-12T13:33:05.181Z,20.00
2023-05-12T13:35:03.827Z,20.00
2023-05-12T13:37:05.869Z,20.00
2023-05-12T13:38:08.609Z,19.90
2023-05-12T13:39:04.091Z,20.00
2023-05-12T13:40:03.649Z,19.90
2023-05-12T13:41:03.259Z,19.90
2023-05-12T13:42:03.881Z,19.90
2023-05-12T13:43:03.434Z,20.00
2023-05-12T13:44:04.137Z,19.80
2023-05-12T13:46:03.309Z,19.90
2023-05-12T13:47:03.964Z,19.80
2023-05-12T13:49:03.647Z,19.70
2023-05-12T13:50:03.404Z,19.80
2023-05-12T13:51:04.032Z,19.70
2023-05-12T13:53:05.910Z,19.70
2023-05-12T13:54:03.347Z,19.70
2023-05-12T13:55:03.177Z,19.70
2023-05-12T13:56:03.744Z,19.50
2023-05-12T13:57:06.010Z,19.60
2023-05-12T13:58:03.400Z,19.60
2023-05-12T13:59:06.579Z,19.60
2023-05-12T14:00:04.008Z,19.60
2023-05-12T14:01:11.197Z,19.70
2023-05-12T14:02:03.825Z,19.60
2023-05-12T14:03:03.507Z,19.60
2023-05-12T14:04:05.734Z,19.60
2023-05-12T14:05:06.041Z,19.50
2023-05-12T14:06:03.631Z,19.50
2023-05-12T14:07:07.797Z,19.70
2023-05-12T14:09:03.996Z,19.50
2023-05-12T14:11:06.201Z,19.50